Terminal Aerodrome Forecast
Issued by NWS Wichita, KS

Home | Current Version | Previous Version | Text Only | Print | Product List | Glossary On
Versions: 1 2 3 4 5 6 7 8 9 10 11 12 13 14 15 16 17 18
000
FTUS43 KICT 020500
TAFICT
TAF
KICT 020520Z 0206/0306 07011KT P6SM VCTS SCT030CB BKN050
     FM021100 11008KT P6SM SCT150
     FM022000 15010KT P6SM VCTS SCT040CB BKN070
     FM030300 15011KT P6SM VCTS BKN070CB=

USA.gov is the U.S. government's official web portal to all federal, state and local government web resources and services.